Time;durP1;ratioP1;P1;durP2;ratioP2;P2;SDS_P1;SDS_P2;PMS_P1;PMS_P2;Temp;Humidity;BMP_temperature;BMP_pressure;BME280_temperature;BME280_humidity;BME280_pressure;Samples;Min_cycle;Max_cycle;Signal;HPM_P1;HPM_P2
2020/12/12 00:01:29;;;;;;;1.33;1.15;;;23.40;32.20;;;;;;5035469;28;20388;-47
2020/12/12 00:03:55;;;;;;;1.10;0.95;;;23.40;32.20;;;;;;5021221;28;20048;-50
2020/12/12 00:06:22;;;;;;;1.20;0.80;;;23.40;32.20;;;;;;5034835;28;20455;-53
2020/12/12 00:08:47;;;;;;;1.05;0.80;;;23.40;32.20;;;;;;5034774;28;20445;-48
2020/12/12 00:11:13;;;;;;;1.00;0.90;;;23.40;32.30;;;;;;5035483;28;20044;-51
2020/12/12 00:13:39;;;;;;;1.10;0.85;;;23.30;32.20;;;;;;5035242;28;20033;-48
2020/12/12 00:16:06;;;;;;;1.10;0.95;;;23.30;32.20;;;;;;5052921;28;20376;-49
2020/12/12 00:18:33;;;;;;;1.33;0.82;;;23.30;32.20;;;;;;5025096;28;20357;-48
2020/12/12 00:20:59;;;;;;;1.33;1.00;;;23.30;32.30;;;;;;5033242;28;20083;-49
2020/12/12 00:23:25;;;;;;;1.20;1.10;;;23.30;32.30;;;;;;5034996;28;20060;-49
2020/12/12 00:25:51;;;;;;;0.98;0.90;;;23.30;32.30;;;;;;5034247;28;20064;-47
2020/12/12 00:28:17;;;;;;;1.40;1.00;;;23.30;32.30;;;;;;5034695;28;20041;-45
2020/12/12 00:30:43;;;;;;;1.75;1.15;;;23.30;32.40;;;;;;5034798;28;20049;-48
2020/12/12 00:33:09;;;;;;;1.40;0.80;;;23.20;32.30;;;;;;5035097;28;20037;-48
2020/12/12 00:35:35;;;;;;;1.20;0.75;;;23.20;32.40;;;;;;5030599;28;20029;-49
2020/12/12 00:38:01;;;;;;;0.93;0.82;;;23.20;32.40;;;;;;5034573;28;20029;-48
2020/12/12 00:40:26;;;;;;;1.52;1.00;;;23.20;32.40;;;;;;5034226;28;20053;-54
2020/12/12 00:42:52;;;;;;;1.15;1.00;;;23.10;32.30;;;;;;5034851;28;20095;-52
2020/12/12 00:45:18;;;;;;;0.77;0.77;;;23.10;32.40;;;;;;5034368;28;20091;-49
2020/12/12 00:47:44;;;;;;;3.03;1.15;;;23.10;32.40;;;;;;5034911;28;20472;-49
2020/12/12 00:50:09;;;;;;;1.42;1.00;;;23.10;32.40;;;;;;5016490;28;20056;-48
2020/12/12 00:52:35;;;;;;;5.25;1.00;;;23.10;32.40;;;;;;5032453;28;20091;-52
2020/12/12 00:55:01;;;;;;;1.30;0.85;;;23.10;32.40;;;;;;5033265;28;20411;-50
2020/12/12 00:57:27;;;;;;;1.33;1.08;;;23.10;32.50;;;;;;5034825;28;20103;-52
2020/12/12 00:59:53;;;;;;;1.65;0.80;;;23.10;32.50;;;;;;5034273;28;20400;-52
2020/12/12 01:02:18;;;;;;;1.10;1.00;;;23.00;32.40;;;;;;5034792;28;20061;-49
2020/12/12 01:04:44;;;;;;;2.28;1.10;;;23.10;32.50;;;;;;5033808;28;20026;-50
2020/12/12 01:07:10;;;;;;;1.13;0.85;;;23.00;32.40;;;;;;5033897;28;20025;-48
2020/12/12 01:09:36;;;;;;;1.23;0.98;;;23.00;32.50;;;;;;5024414;28;20064;-46
2020/12/12 01:12:02;;;;;;;1.30;1.17;;;23.00;32.50;;;;;;5034521;28;20025;-49
2020/12/12 01:14:27;;;;;;;1.17;0.90;;;23.00;32.50;;;;;;5033823;28;20030;-49
2020/12/12 01:16:57;;;;;;;1.13;1.00;;;23.00;32.50;;;;;;5034474;28;20034;-48
2020/12/12 01:19:23;;;;;;;1.70;1.17;;;23.00;32.50;;;;;;5033973;28;20036;-48
2020/12/12 01:21:49;;;;;;;1.23;1.00;;;22.90;32.50;;;;;;5034657;28;20045;-51
2020/12/12 01:24:16;;;;;;;1.40;1.00;;;23.00;32.60;;;;;;5025357;28;20037;-52
2020/12/12 01:26:45;;;;;;;1.00;0.90;;;22.90;32.50;;;;;;5025080;28;20038;-48
2020/12/12 01:29:11;;;;;;;1.00;0.90;;;22.90;32.50;;;;;;5001323;28;20091;-52
2020/12/12 01:31:37;;;;;;;1.67;1.05;;;22.90;32.50;;;;;;5034142;28;20376;-51
2020/12/12 01:34:03;;;;;;;1.23;1.10;;;22.90;32.60;;;;;;5033854;28;20113;-48
2020/12/12 01:36:29;;;;;;;1.00;0.90;;;22.90;32.60;;;;;;5016445;28;20026;-51
2020/12/12 01:38:55;;;;;;;1.73;1.20;;;22.90;32.60;;;;;;5033508;28;20116;-48
2020/12/12 01:41:22;;;;;;;1.60;1.23;;;22.90;33.20;;;;;;5026917;28;20691;-50
2020/12/12 01:43:54;;;;;;;1.38;1.20;;;22.80;32.60;;;;;;5025779;28;20361;-49
2020/12/12 01:46:26;;;;;;;1.52;1.10;;;22.80;32.50;;;;;;5032123;28;20136;-49
2020/12/12 01:48:54;;;;;;;1.10;1.00;;;22.80;32.60;;;;;;5033869;28;20083;-48
2020/12/12 01:51:25;;;;;;;1.52;1.08;;;22.80;32.60;;;;;;5033494;28;20029;-49
2020/12/12 01:53:54;;;;;;;1.30;1.05;;;22.80;32.60;;;;;;5033378;28;20049;-50
2020/12/12 01:56:21;;;;;;;1.48;1.10;;;22.80;32.60;;;;;;5028358;28;20026;-47
2020/12/12 01:58:46;;;;;;;2.20;1.17;;;22.80;32.70;;;;;;5011165;28;20040;-49
2020/12/12 02:01:13;;;;;;;1.00;0.90;;;22.70;32.60;;;;;;5033880;28;20033;-49
2020/12/12 02:03:43;;;;;;;1.30;1.15;;;22.80;32.70;;;;;;5033970;28;20033;-49
2020/12/12 02:06:13;;;;;;;1.50;1.20;;;22.70;32.60;;;;;;5032812;28;20236;-47
2020/12/12 02:08:39;;;;;;;1.15;0.90;;;22.70;32.70;;;;;;5036928;28;20136;-48
2020/12/12 02:11:10;;;;;;;1.23;1.05;;;22.70;32.70;;;;;;5037504;28;20071;-51
2020/12/12 02:13:36;;;;;;;2.25;1.27;;;22.70;32.70;;;;;;5037252;28;20029;-49
2020/12/12 02:16:02;;;;;;;1.42;1.08;;;22.70;32.80;;;;;;5019362;28;20387;-51
2020/12/12 02:18:28;;;;;;;1.25;1.02;;;22.70;32.70;;;;;;5037285;28;20029;-48
2020/12/12 02:21:01;;;;;;;2.13;1.27;;;22.70;32.80;;;;;;5035698;28;20471;-51
2020/12/12 02:23:27;;;;;;;1.92;0.93;;;22.70;32.70;;;;;;5037311;28;20040;-51
2020/12/12 02:25:53;;;;;;;1.40;0.93;;;22.70;32.80;;;;;;5036986;28;20025;-48
2020/12/12 02:28:22;;;;;;;1.30;1.20;;;22.60;32.70;;;;;;5036831;28;20041;-46
2020/12/12 02:30:48;;;;;;;1.52;1.20;;;22.60;32.80;;;;;;5037045;28;20059;-49
2020/12/12 02:33:15;;;;;;;1.58;1.35;;;22.60;32.80;;;;;;5037226;28;20116;-52
2020/12/12 02:35:41;;;;;;;1.27;1.08;;;22.60;33.40;;;;;;5032695;28;20076;-47
2020/12/12 02:38:07;;;;;;;1.45;1.00;;;22.60;32.80;;;;;;5027465;28;20090;-49
2020/12/12 02:40:33;;;;;;;1.30;1.20;;;22.60;32.80;;;;;;5037249;28;20128;-47
2020/12/12 02:42:59;;;;;;;1.45;1.13;;;22.60;32.80;;;;;;5036064;28;20029;-50
2020/12/12 02:45:24;;;;;;;1.27;1.17;;;22.60;32.80;;;;;;5037093;28;20041;-51
2020/12/12 02:47:50;;;;;;;1.38;1.27;;;22.60;32.80;;;;;;5035953;28;20041;-49
2020/12/12 02:50:25;;;;;;;1.58;1.10;;;22.60;32.80;;;;;;5036108;28;20026;-47
2020/12/12 02:52:52;;;;;;;1.63;1.20;;;22.50;32.80;;;;;;5033860;28;20038;-51
2020/12/12 02:55:18;;;;;;;2.15;1.25;;;22.50;32.80;;;;;;5036708;28;20400;-48
2020/12/12 02:57:44;;;;;;;1.27;1.17;;;22.50;32.80;;;;;;5023296;28;20069;-50
2020/12/12 03:00:15;;;;;;;1.75;1.30;;;22.50;32.90;;;;;;5024528;28;20444;-50
2020/12/12 03:02:40;;;;;;;1.83;1.30;;;22.50;32.80;;;;;;5036501;28;20361;-52
2020/12/12 03:05:07;;;;;;;1.38;1.25;;;22.50;32.90;;;;;;5036476;28;20029;-48
2020/12/12 03:07:34;;;;;;;1.58;1.15;;;22.50;32.90;;;;;;5024810;28;20034;-47
2020/12/12 03:10:04;;;;;;;1.77;1.42;;;22.50;33.00;;;;;;5024994;28;20436;-48
2020/12/12 03:12:31;;;;;;;1.83;1.45;;;22.50;33.00;;;;;;5036072;28;20025;-49
2020/12/12 03:14:57;;;;;;;1.85;1.23;;;22.50;32.90;;;;;;5018902;28;20029;-51
2020/12/12 03:17:23;;;;;;;1.40;1.30;;;22.50;32.90;;;;;;5035819;28;20029;-51
2020/12/12 03:19:48;;;;;;;1.58;1.20;;;22.40;32.90;;;;;;5036084;28;20464;-50
2020/12/12 03:22:14;;;;;;;1.52;1.23;;;22.40;32.90;;;;;;5034656;28;21121;-49
2020/12/12 03:24:40;;;;;;;1.10;1.00;;;22.40;32.90;;;;;;5036123;28;20033;-52
2020/12/12 03:27:05;;;;;;;1.25;1.10;;;22.40;32.90;;;;;;5036070;28;20037;-49
2020/12/12 03:29:31;;;;;;;2.00;1.60;;;22.40;32.90;;;;;;5034913;28;20067;-50
2020/12/12 03:31:57;;;;;;;1.58;1.38;;;22.40;32.90;;;;;;5005150;28;20124;-52
2020/12/12 03:34:23;;;;;;;1.30;1.20;;;22.40;32.90;;;;;;5015996;28;20049;-49
2020/12/12 03:36:48;;;;;;;1.38;1.25;;;22.40;32.90;;;;;;5016288;28;20129;-53
2020/12/12 03:39:14;;;;;;;1.42;1.17;;;22.40;32.90;;;;;;5016221;28;20084;-48
2020/12/12 03:41:40;;;;;;;1.73;1.17;;;22.40;33.20;;;;;;5015507;28;20026;-50
2020/12/12 03:44:06;;;;;;;2.75;1.40;;;22.40;33.20;;;;;;5015901;28;20034;-54
2020/12/12 03:46:31;;;;;;;1.88;1.30;;;22.40;33.10;;;;;;5015324;28;20126;-53
2020/12/12 03:48:57;;;;;;;2.05;1.35;;;22.40;33.10;;;;;;5015444;28;20041;-48
2020/12/12 03:51:23;;;;;;;1.75;1.17;;;22.40;33.10;;;;;;5015851;28;20034;-50
2020/12/12 03:53:49;;;;;;;1.48;1.20;;;22.40;33.10;;;;;;4988032;28;20042;-49
2020/12/12 03:56:15;;;;;;;1.50;1.20;;;22.30;33.10;;;;;;4997801;28;20374;-51
2020/12/12 03:58:41;;;;;;;1.10;1.00;;;22.30;33.10;;;;;;4996451;28;20030;-47
2020/12/12 04:01:07;;;;;;;1.33;1.15;;;22.30;33.10;;;;;;5013573;28;20084;-48
2020/12/12 04:03:33;;;;;;;1.10;1.00;;;22.30;33.10;;;;;;5015361;28;20116;-48
2020/12/12 04:05:59;;;;;;;1.45;1.30;;;22.30;33.10;;;;;;5014326;28;20464;-48
2020/12/12 04:08:25;;;;;;;1.63;1.05;;;22.30;33.10;;;;;;5015873;28;20041;-50
2020/12/12 04:10:51;;;;;;;1.20;1.00;;;22.30;33.10;;;;;;5014817;28;20026;-52
2020/12/12 04:13:16;;;;;;;1.73;1.33;;;22.30;33.20;;;;;;5015666;28;20034;-53
2020/12/12 04:15:42;;;;;;;1.27;1.10;;;22.30;33.20;;;;;;5015257;28;20034;-46
2020/12/12 04:18:08;;;;;;;1.33;1.20;;;22.30;33.20;;;;;;5015438;28;20045;-47
2020/12/12 04:20:34;;;;;;;1.42;1.23;;;22.20;33.10;;;;;;5015346;28;20044;-48
2020/12/12 04:22:59;;;;;;;1.13;0.90;;;22.20;33.10;;;;;;5015288;28;20117;-47
2020/12/12 04:25:25;;;;;;;1.20;1.10;;;22.20;33.80;;;;;;5014085;28;20034;-46
2020/12/12 04:27:51;;;;;;;1.00;0.90;;;22.20;33.20;;;;;;5015488;28;20033;-53
2020/12/12 04:30:17;;;;;;;1.10;1.00;;;22.20;33.20;;;;;;4996774;28;20050;-50
2020/12/12 04:32:42;;;;;;;1.27;1.08;;;22.20;33.20;;;;;;5012742;28;20468;-48
2020/12/12 04:35:08;;;;;;;1.85;1.35;;;22.20;33.20;;;;;;5004132;28;20034;-49
2020/12/12 04:37:34;;;;;;;1.48;0.98;;;22.20;33.20;;;;;;5014411;28;20450;-48
2020/12/12 04:40:00;;;;;;;1.55;1.15;;;22.20;33.20;;;;;;5015016;28;20034;-53
2020/12/12 04:42:27;;;;;;;1.05;0.95;;;22.20;33.20;;;;;;5014512;28;20038;-49
2020/12/12 04:44:53;;;;;;;0.70;0.70;;;22.20;33.30;;;;;;5014497;28;20044;-51
2020/12/12 04:47:23;;;;;;;2.75;1.10;;;22.20;33.30;;;;;;5013825;28;20473;-49
2020/12/12 04:49:49;;;;;;;1.60;1.20;;;22.20;33.40;;;;;;5014985;28;20038;-50
2020/12/12 04:52:17;;;;;;;1.20;1.10;;;22.20;33.40;;;;;;5014919;28;20353;-50
2020/12/12 04:54:46;;;;;;;1.70;1.42;;;22.10;33.30;;;;;;4995347;28;20026;-48
2020/12/12 04:57:13;;;;;;;2.03;1.08;;;22.10;33.40;;;;;;5013674;28;20445;-50
2020/12/12 04:59:42;;;;;;;1.20;1.08;;;22.10;33.40;;;;;;5014747;28;20044;-48
2020/12/12 05:02:12;;;;;;;1.33;1.00;;;22.10;33.40;;;;;;5012345;28;20054;-51
2020/12/12 05:04:41;;;;;;;1.00;0.90;;;22.10;33.40;;;;;;5005835;28;20038;-48
2020/12/12 05:07:08;;;;;;;1.45;1.10;;;22.10;33.40;;;;;;4995242;28;20107;-50
2020/12/12 05:09:34;;;;;;;1.50;1.20;;;22.10;33.40;;;;;;5012202;28;20049;-51
2020/12/12 05:12:01;;;;;;;1.73;1.40;;;22.10;33.40;;;;;;5014482;28;20029;-47
2020/12/12 05:14:27;;;;;;;1.10;1.00;;;22.10;33.40;;;;;;5014394;28;20034;-52
2020/12/12 05:16:54;;;;;;;1.20;1.10;;;22.10;33.40;;;;;;5014661;28;20353;-50
2020/12/12 05:19:21;;;;;;;1.30;1.20;;;22.10;33.40;;;;;;5007037;28;20058;-48
2020/12/12 05:21:51;;;;;;;1.80;1.08;;;22.10;33.40;;;;;;5004396;28;20044;-48
2020/12/12 05:24:17;;;;;;;1.90;1.40;;;22.10;33.40;;;;;;5014722;28;20072;-50
2020/12/12 05:26:44;;;;;;;1.90;1.20;;;22.10;33.50;;;;;;5014475;28;20065;-49
2020/12/12 05:29:14;;;;;;;3.88;1.00;;;22.10;33.50;;;;;;4996502;28;20042;-51
2020/12/12 05:31:40;;;;;;;1.20;1.10;;;22.10;33.50;;;;;;5019278;28;20111;-51
2020/12/12 05:34:14;;;;;;;1.73;1.20;;;22.00;33.50;;;;;;5030017;28;20068;-49
2020/12/12 05:36:42;;;;;;;1.58;1.10;;;22.00;33.40;;;;;;5026809;28;20120;-50
2020/12/12 05:39:13;;;;;;;1.50;1.10;;;22.00;33.50;;;;;;5033808;28;20480;-53
2020/12/12 05:41:41;;;;;;;1.40;1.10;;;22.00;33.50;;;;;;5036361;28;20069;-50
2020/12/12 05:44:07;;;;;;;2.72;1.00;;;22.00;33.50;;;;;;5020495;28;20102;-48
2020/12/12 05:46:33;;;;;;;1.50;1.08;;;22.00;33.50;;;;;;5038139;28;20418;-49
2020/12/12 05:49:01;;;;;;;1.33;1.20;;;22.00;33.50;;;;;;5037173;28;20037;-48
2020/12/12 05:51:28;;;;;;;1.20;1.00;;;22.00;33.50;;;;;;5031335;28;20025;-52
2020/12/12 05:53:55;;;;;;;1.10;1.00;;;22.00;33.60;;;;;;5037802;28;20026;-47
2020/12/12 05:56:23;;;;;;;1.50;1.10;;;22.00;33.60;;;;;;5038060;28;20445;-48
2020/12/12 05:58:51;;;;;;;1.85;0.98;;;22.00;33.60;;;;;;5037851;28;20038;-48
2020/12/12 06:01:23;;;;;;;1.00;0.90;;;22.00;33.60;;;;;;5037666;28;20351;-47
2020/12/12 06:04:07;;;;;;;1.80;1.20;;;22.00;33.60;;;;;;5030609;28;20026;-47
2020/12/12 06:06:33;;;;;;;1.45;1.08;;;21.90;33.50;;;;;;5022717;28;20116;-46
2020/12/12 06:09:09;;;;;;;0.90;0.73;;;21.90;33.60;;;;;;5037220;28;20128;-49
2020/12/12 06:11:40;;;;;;;1.58;0.93;;;21.90;33.60;;;;;;5037495;28;20047;-49
2020/12/12 06:14:06;;;;;;;2.33;1.00;;;21.90;33.60;;;;;;5037686;28;20033;-48
2020/12/12 06:16:35;;;;;;;1.65;1.02;;;21.90;33.60;;;;;;5037378;28;20033;-50
2020/12/12 06:19:15;;;;;;;1.20;0.98;;;21.90;33.60;;;;;;5013194;28;20417;-47
2020/12/12 06:21:49;;;;;;;1.45;1.02;;;21.90;33.70;;;;;;5029698;28;20116;-50
2020/12/12 06:24:19;;;;;;;2.80;1.40;;;21.90;33.70;;;;;;5037011;28;20061;-53
2020/12/12 06:27:12;;;;;;;1.40;0.98;;;21.90;33.70;;;;;;5037253;28;20041;-48
2020/12/12 06:29:42;;;;;;;1.55;0.90;;;21.90;33.60;;;;;;5033610;28;20054;-49
2020/12/12 06:32:16;;;;;;;1.63;1.10;;;21.90;33.70;;;;;;5028270;28;20384;-49
2020/12/12 06:34:50;;;;;;;1.45;1.05;;;21.90;33.80;;;;;;5037448;28;20071;-47
2020/12/12 06:37:28;;;;;;;1.35;1.23;;;21.90;33.70;;;;;;5020808;28;20419;-51
2020/12/12 06:39:55;;;;;;;0.95;0.88;;;21.90;33.80;;;;;;5035973;28;20033;-52
2020/12/12 06:42:50;;;;;;;1.25;0.90;;;21.80;33.70;;;;;;5036617;28;20045;-49
2020/12/12 06:45:16;;;;;;;;;;;21.80;33.70;;;;;;5028185;28;20179;-50
2020/12/12 06:47:47;;;;;;;1.33;1.13;;;21.80;33.80;;;;;;5036882;28;20355;-48
2020/12/12 06:50:14;;;;;;;1.08;0.80;;;21.80;33.80;;;;;;5036140;28;20410;-51
2020/12/12 06:52:41;;;;;;;1.80;1.17;;;21.80;33.80;;;;;;5036315;28;20045;-49
2020/12/12 06:55:12;;;;;;;1.05;0.80;;;21.80;33.80;;;;;;5027421;28;20037;-46
2020/12/12 06:57:46;;;;;;;1.10;0.82;;;21.80;33.90;;;;;;5035801;28;20110;-50
2020/12/12 07:00:28;;;;;;;1.33;0.90;;;21.80;33.90;;;;;;5036103;28;20429;-48
2020/12/12 07:02:59;;;;;;;1.42;0.80;;;21.80;33.90;;;;;;5037693;28;20396;-51
2020/12/12 07:05:26;;;;;;;1.35;0.77;;;21.80;34.00;;;;;;5036513;28;20083;-48
2020/12/12 07:07:52;;;;;;;1.33;0.77;;;21.70;33.90;;;;;;5018103;28;20464;-49
2020/12/12 07:10:19;;;;;;;1.05;0.70;;;21.70;34.00;;;;;;5027775;28;20030;-49
2020/12/12 07:12:45;;;;;;;1.17;0.85;;;21.70;34.00;;;;;;5021074;28;20048;-47
2020/12/12 07:15:10;;;;;;;2.50;0.77;;;21.80;34.10;;;;;;5036339;28;20030;-52
2020/12/12 07:17:36;;;;;;;1.50;0.88;;;21.70;34.10;;;;;;5035741;28;20037;-48
2020/12/12 07:20:03;;;;;;;1.30;0.93;;;21.80;34.20;;;;;;5036282;28;20041;-48
2020/12/12 07:22:29;;;;;;;2.13;1.00;;;21.80;34.20;;;;;;5035823;28;20358;-52
2020/12/12 07:24:59;;;;;;;1.48;0.75;;;21.70;34.10;;;;;;5031438;28;20041;-49
2020/12/12 07:27:25;;;;;;;1.63;0.90;;;21.70;34.10;;;;;;5035894;28;20037;-51
2020/12/12 07:29:51;;;;;;;1.67;1.10;;;21.70;34.10;;;;;;5035936;28;20056;-51
2020/12/12 07:32:17;;;;;;;2.13;0.90;;;21.70;34.20;;;;;;5035652;28;20068;-53
2020/12/12 07:34:43;;;;;;;2.75;1.10;;;21.70;34.20;;;;;;5035711;28;20061;-55
2020/12/12 07:37:10;;;;;;;1.10;0.90;;;21.70;34.20;;;;;;5036572;28;20501;-51
2020/12/12 07:39:40;;;;;;;1.83;1.00;;;21.70;34.30;;;;;;5034745;28;20087;-51
2020/12/12 07:42:09;;;;;;;2.22;0.95;;;21.70;34.30;;;;;;5034566;28;20135;-58
2020/12/12 07:44:40;;;;;;;2.80;1.50;;;21.70;34.50;;;;;;5029284;28;20041;-54
2020/12/12 07:47:08;;;;;;;5.93;1.30;;;21.80;35.00;;;;;;5015553;28;20112;-53
2020/12/12 07:49:35;;;;;;;6.97;1.85;;;21.80;35.40;;;;;;5033484;28;20485;-55
2020/12/12 07:52:04;;;;;;;7.60;1.85;;;21.90;35.50;;;;;;5016263;28;20025;-57
2020/12/12 07:54:36;;;;;;;3.92;1.50;;;21.90;35.60;;;;;;5018113;28;20359;-57
2020/12/12 07:57:03;;;;;;;7.15;1.95;;;22.00;35.70;;;;;;5029472;28;20078;-61
2020/12/12 07:59:30;;;;;;;7.55;2.30;;;22.00;35.70;;;;;;5031881;28;20438;-60
2020/12/12 08:02:01;;;;;;;4.57;1.70;;;22.00;35.60;;;;;;5031737;28;20103;-61
2020/12/12 08:04:27;;;;;;;4.70;1.73;;;22.00;35.50;;;;;;5032798;28;20108;-61
2020/12/12 08:06:52;;;;;;;6.78;1.77;;;22.00;35.30;;;;;;5032825;28;20113;-60
2020/12/12 08:09:20;;;;;;;8.77;2.10;;;22.10;35.20;;;;;;5033232;28;20037;-61
2020/12/12 08:11:55;;;;;;;4.22;1.92;;;22.10;35.20;;;;;;5030687;28;20064;-60
2020/12/12 08:14:21;;;;;;;5.93;2.03;;;22.10;35.00;;;;;;5014929;28;20036;-61
2020/12/12 08:16:48;;;;;;;4.72;1.92;;;22.10;35.00;;;;;;5032996;28;20029;-59
2020/12/12 08:19:14;;;;;;;6.28;2.28;;;22.10;34.90;;;;;;5032851;28;20029;-60
2020/12/12 08:21:40;;;;;;;5.75;2.03;;;22.10;34.90;;;;;;5032864;28;20026;-59
2020/12/12 08:24:06;;;;;;;5.18;1.95;;;22.10;34.80;;;;;;5033403;28;20049;-60
2020/12/12 08:26:35;;;;;;;6.97;2.60;;;22.10;34.80;;;;;;4999222;28;20440;-60
2020/12/12 08:29:03;;;;;;;5.90;2.55;;;22.10;34.70;;;;;;5032715;28;20033;-59
2020/12/12 08:31:39;;;;;;;4.82;2.42;;;22.20;34.80;;;;;;5033486;28;20055;-62
2020/12/12 08:34:07;;;;;;;5.22;2.42;;;22.20;34.70;;;;;;5030009;28;20034;-63
2020/12/12 08:36:34;;;;;;;4.95;2.15;;;22.20;34.80;;;;;;5015690;28;21113;-59
2020/12/12 08:39:06;;;;;;;4.57;1.77;;;22.20;34.90;;;;;;5032186;28;20021;-60
2020/12/12 08:41:35;;;;;;;5.10;2.33;;;22.20;35.00;;;;;;5033454;28;20048;-59
2020/12/12 08:44:01;;;;;;;4.97;1.77;;;22.20;35.00;;;;;;5031919;28;20163;-60
2020/12/12 08:46:27;;;;;;;5.60;1.90;;;22.20;35.00;;;;;;5032455;28;20041;-60
2020/12/12 08:48:54;;;;;;;4.03;1.98;;;22.20;34.90;;;;;;5031788;28;20041;-58
2020/12/12 08:51:25;;;;;;;5.35;2.13;;;22.20;35.00;;;;;;5016883;28;20164;-59
2020/12/12 08:53:52;;;;;;;5.70;2.22;;;22.30;35.20;;;;;;5037283;28;20078;-60
2020/12/12 08:56:21;;;;;;;6.05;2.10;;;22.30;35.40;;;;;;5031904;28;20044;-61
2020/12/12 08:59:00;;;;;;;6.20;2.30;;;22.30;35.50;;;;;;5032917;28;20036;-61
2020/12/12 09:01:42;;;;;;;4.55;1.98;;;22.30;35.70;;;;;;5033263;28;20025;-59
2020/12/12 09:04:07;;;;;;;6.07;2.33;;;22.40;35.90;;;;;;5014707;28;20398;-61
2020/12/12 09:06:46;;;;;;;5.72;2.00;;;22.30;35.90;;;;;;5033367;28;20061;-60
2020/12/12 09:09:11;;;;;;;5.07;2.20;;;22.40;36.10;;;;;;5030242;28;20125;-57
2020/12/12 09:11:43;;;;;;;5.43;2.20;;;22.40;36.20;;;;;;5034371;28;20119;-59
2020/12/12 09:14:09;;;;;;;4.72;2.33;;;22.40;36.30;;;;;;5030478;28;20037;-54
2020/12/12 09:16:38;;;;;;;5.07;2.22;;;22.40;36.30;;;;;;5033136;28;20025;-59
2020/12/12 09:19:05;;;;;;;5.15;2.22;;;22.40;36.40;;;;;;5033908;28;20021;-60
2020/12/12 09:21:33;;;;;;;7.75;2.22;;;22.50;36.50;;;;;;5036003;28;20056;-55
2020/12/12 09:23:59;;;;;;;5.10;2.30;;;22.50;36.50;;;;;;5029061;28;20028;-60
2020/12/12 09:26:25;;;;;;;3.35;1.85;;;22.60;36.50;;;;;;5030749;28;20049;-52
2020/12/12 09:28:51;;;;;;;4.13;1.95;;;22.70;36.50;;;;;;5032907;28;20120;-56
2020/12/12 09:31:19;;;;;;;4.13;2.10;;;22.80;36.40;;;;;;5035198;28;20132;-58
2020/12/12 09:33:45;;;;;;;4.15;1.80;;;22.80;36.30;;;;;;5031469;28;20021;-57
2020/12/12 09:36:11;;;;;;;3.88;2.15;;;22.90;36.20;;;;;;5031023;28;20021;-59
2020/12/12 09:38:37;;;;;;;4.00;1.80;;;23.00;36.10;;;;;;5030327;28;20029;-54
2020/12/12 09:41:03;;;;;;;4.43;1.75;;;23.10;36.00;;;;;;5031097;28;20017;-54
2020/12/12 09:43:30;;;;;;;3.45;1.58;;;23.20;35.80;;;;;;5031676;28;20025;-52
2020/12/12 09:45:55;;;;;;;3.58;2.20;;;23.30;35.70;;;;;;5031097;28;20021;-52
2020/12/12 09:48:22;;;;;;;3.17;1.63;;;23.30;35.50;;;;;;5031671;28;21883;-53
2020/12/12 09:50:48;;;;;;;2.78;1.50;;;23.40;35.30;;;;;;5031957;28;20033;-55
2020/12/12 09:53:13;;;;;;;2.45;1.60;;;23.50;35.20;;;;;;5031336;28;20614;-59
2020/12/12 09:55:40;;;;;;;3.80;1.63;;;23.50;35.00;;;;;;5030023;28;20044;-50
2020/12/12 09:58:07;;;;;;;3.50;1.80;;;23.60;34.90;;;;;;5028017;28;20021;-57
2020/12/12 10:00:38;;;;;;;3.35;1.83;;;23.60;34.70;;;;;;5035041;28;20437;-55
2020/12/12 10:03:05;;;;;;;4.70;2.25;;;23.70;34.70;;;;;;5016219;28;20111;-55
2020/12/12 10:05:32;;;;;;;2.42;1.48;;;23.80;34.60;;;;;;5032434;28;20029;-53
2020/12/12 10:07:58;;;;;;;3.65;1.80;;;23.80;34.60;;;;;;5014230;28;20045;-58
2020/12/12 10:10:26;;;;;;;3.25;1.65;;;23.90;34.60;;;;;;5031810;28;20033;-54
2020/12/12 10:12:52;;;;;;;5.07;1.80;;;24.00;34.60;;;;;;5013696;28;20419;-52
2020/12/12 10:15:19;;;;;;;3.88;1.80;;;24.00;34.50;;;;;;5030159;28;20030;-58
2020/12/12 10:17:46;;;;;;;4.70;2.70;;;24.00;34.40;;;;;;5031940;28;20044;-56
2020/12/12 10:20:12;;;;;;;3.55;1.75;;;24.10;34.50;;;;;;5033167;28;20029;-50
2020/12/12 10:22:39;;;;;;;4.47;1.55;;;24.10;34.70;;;;;;5030871;28;20044;-52
2020/12/12 10:25:06;;;;;;;5.28;1.95;;;24.10;34.90;;;;;;5031359;28;20105;-50
2020/12/12 10:27:36;;;;;;;3.70;1.95;;;24.20;35.10;;;;;;5032365;28;20033;-54
2020/12/12 10:30:08;;;;;;;2.70;1.50;;;24.20;35.10;;;;;;5034627;28;20108;-55
2020/12/12 10:32:34;;;;;;;3.97;1.83;;;24.20;35.00;;;;;;5035871;28;20026;-54
2020/12/12 10:35:00;;;;;;;3.75;1.67;;;24.30;35.00;;;;;;5034391;28;20033;-47
2020/12/12 10:37:26;;;;;;;3.50;1.88;;;24.30;35.10;;;;;;5034964;28;20021;-53
2020/12/12 10:42:19;;;;;;;4.45;2.20;;;24.40;35.30;;;;;;5034734;28;20029;-53
2020/12/12 10:44:44;;;;;;;4.50;2.10;;;24.40;35.30;;;;;;5034121;28;20063;-56
2020/12/12 10:47:10;;;;;;;3.40;2.00;;;24.40;35.30;;;;;;5034573;28;20156;-54
2020/12/12 10:49:36;;;;;;;3.83;2.00;;;24.40;35.40;;;;;;5015755;28;20102;-54
2020/12/12 10:52:02;;;;;;;8.77;2.38;;;24.40;35.30;;;;;;5038672;28;20108;-52
2020/12/12 10:54:28;;;;;;;4.60;2.45;;;24.40;35.30;;;;;;5036098;28;20045;-53
2020/12/12 10:56:54;;;;;;;4.07;2.30;;;24.40;35.30;;;;;;5034620;28;20081;-53
2020/12/12 10:59:20;;;;;;;4.22;2.10;;;24.50;35.40;;;;;;5034274;28;20048;-51
2020/12/12 11:01:54;;;;;;;6.13;2.53;;;24.50;35.40;;;;;;5034261;28;20123;-53
2020/12/12 11:04:21;;;;;;;4.07;2.30;;;24.50;35.30;;;;;;5035051;28;20036;-53
2020/12/12 11:06:47;;;;;;;3.80;2.20;;;24.50;35.90;;;;;;5036812;28;20043;-49
2020/12/12 11:09:13;;;;;;;3.50;2.30;;;24.50;35.20;;;;;;5036201;28;20033;-52
2020/12/12 11:11:39;;;;;;;5.53;2.42;;;24.50;35.20;;;;;;5035270;28;20025;-54
2020/12/12 11:14:09;;;;;;;3.95;2.38;;;24.50;35.20;;;;;;5035015;28;20450;-53
2020/12/12 11:16:36;;;;;;;5.57;2.38;;;24.50;35.10;;;;;;5035639;28;20037;-50
2020/12/12 11:19:03;;;;;;;4.97;2.40;;;24.50;35.10;;;;;;5034570;28;20353;-50
2020/12/12 11:21:29;;;;;;;4.72;2.60;;;24.40;35.00;;;;;;5032482;28;20059;-53
2020/12/12 11:23:56;;;;;;;4.45;2.65;;;24.50;35.00;;;;;;5023171;28;20446;-52
2020/12/12 11:26:22;;;;;;;4.20;2.33;;;24.50;35.00;;;;;;5032079;28;20025;-55
2020/12/12 11:28:48;;;;;;;4.45;2.15;;;24.50;35.00;;;;;;5030011;28;20041;-53
2020/12/12 11:31:16;;;;;;;5.82;2.85;;;24.50;35.00;;;;;;5032676;28;20468;-54
2020/12/12 11:33:46;;;;;;;7.10;3.20;;;24.40;34.90;;;;;;5034767;28;20391;-55
2020/12/12 11:38:53;;;;;;;7.18;2.60;;;24.40;34.90;;;;;;5035888;28;20037;-52
2020/12/12 11:44:26;;;;;;;4.70;2.30;;;24.50;35.10;;;;;;5032683;28;20029;-55
2020/12/12 11:46:52;;;;;;;4.78;2.15;;;24.50;35.10;;;;;;5036805;28;20034;-53
2020/12/12 11:49:20;;;;;;;4.65;2.65;;;24.50;35.20;;;;;;5032643;28;20041;-53
2020/12/12 11:51:46;;;;;;;4.47;2.38;;;24.50;35.30;;;;;;5034663;28;20026;-57
2020/12/12 11:54:12;;;;;;;4.22;2.15;;;24.50;35.40;;;;;;5033190;28;20026;-52
2020/12/12 11:56:37;;;;;;;5.30;2.30;;;24.50;35.50;;;;;;5032207;28;20040;-55
2020/12/12 11:59:03;;;;;;;4.07;2.10;;;24.50;35.70;;;;;;5033469;28;20037;-55
2020/12/12 12:01:29;;;;;;;3.90;2.30;;;24.50;36.00;;;;;;5033040;28;20052;-56
2020/12/12 12:03:56;;;;;;;5.72;2.15;;;24.60;36.50;;;;;;5038460;28;20021;-55
2020/12/12 12:06:23;;;;;;;3.88;2.33;;;24.60;37.10;;;;;;5039211;28;20114;-54
2020/12/12 12:11:28;;;;;;;4.40;2.30;;;24.80;38.10;;;;;;5032615;28;20025;-52
2020/12/12 12:13:55;;;;;;;6.70;1.90;;;25.00;38.50;;;;;;5033417;28;20029;-55
2020/12/12 12:16:20;;;;;;;3.40;1.88;;;25.10;38.90;;;;;;5030914;28;20040;-53
2020/12/12 12:18:47;;;;;;;4.28;2.15;;;25.20;39.20;;;;;;5035642;28;20049;-57
2020/12/12 12:21:14;;;;;;;2.97;1.85;;;25.30;39.50;;;;;;5030198;28;21500;-56
2020/12/12 12:23:40;;;;;;;2.35;1.45;;;25.40;39.50;;;;;;5031968;28;20056;-60
2020/12/12 12:26:05;;;;;;;3.33;1.67;;;25.40;33.00;;;;;;5032727;28;20018;-57
2020/12/12 12:28:35;;;;;;;2.30;1.50;;;25.40;33.40;;;;;;5032376;28;20036;-60
2020/12/12 12:31:01;;;;;;;3.10;1.50;;;25.40;34.80;;;;;;5032923;28;20095;-62
2020/12/12 12:33:27;;;;;;;2.08;1.40;;;25.40;35.60;;;;;;5036158;28;20090;-57
2020/12/12 12:35:53;;;;;;;3.40;1.80;;;25.50;36.00;;;;;;5032505;28;20041;-58
2020/12/12 12:38:19;;;;;;;3.30;1.55;;;25.60;36.20;;;;;;5031823;28;20488;-64
2020/12/12 12:40:45;;;;;;;3.25;1.80;;;25.70;36.20;;;;;;5033208;28;20026;-53
2020/12/12 12:43:11;;;;;;;2.55;1.75;;;25.70;35.90;;;;;;5036541;28;20042;-57
2020/12/12 12:45:37;;;;;;;3.47;1.70;;;25.80;35.80;;;;;;5030301;28;20025;-57
2020/12/12 12:48:03;;;;;;;3.35;1.80;;;25.80;35.60;;;;;;5034011;28;20033;-55
2020/12/12 12:50:35;;;;;;;4.95;1.92;;;25.90;35.40;;;;;;5031019;28;20503;-53
2020/12/12 12:53:09;;;;;;;2.83;1.75;;;25.90;35.30;;;;;;5014709;28;20340;-55
2020/12/12 12:55:36;;;;;;;4.38;2.05;;;25.90;35.40;;;;;;5032267;28;20025;-52
2020/12/12 12:58:01;;;;;;;3.58;1.90;;;26.00;35.40;;;;;;5031992;28;20017;-55
2020/12/12 13:00:28;;;;;;;3.80;2.00;;;26.00;35.40;;;;;;5031729;28;20338;-55